Time;durP1;ratioP1;P1;durP2;ratioP2;P2;SDS_P1;SDS_P2;PMS_P1;PMS_P2;Temp;Humidity;BMP_temperature;BMP_pressure;BME280_temperature;BME280_humidity;BME280_pressure;Samples;Min_cycle;Max_cycle;Signal;HPM_P1;HPM_P2
2022/03/29 00:01:36;;;;;;;13.25;6.63;;;;;;;;;;6218481;28;20053;-79
2022/03/29 00:04:39;;;;;;;13.52;6.40;;;;;;;;;;6219552;28;20543;-79
2022/03/29 00:07:44;;;;;;;12.38;7.28;;;;;;;;;;6219807;28;20414;-79
2022/03/29 00:10:47;;;;;;;16.45;6.85;;;;;;;;;;6218451;28;20496;-80
2022/03/29 00:13:51;;;;;;;14.18;7.65;;;;;;;;;;6218855;28;20057;-79
2022/03/29 00:16:54;;;;;;;13.00;7.13;;;;;;;;;;6219061;28;20061;-79
2022/03/29 00:19:57;;;;;;;14.05;7.95;;;;;;;;;;6218370;28;20042;-79
2022/03/29 00:23:00;;;;;;;13.50;7.28;;;;;;;;;;6217614;28;20049;-79
2022/03/29 00:26:03;;;;;;;15.38;7.25;;;;;;;;;;6219252;28;20052;-77
2022/03/29 00:29:09;;;;;;;15.43;7.53;;;;;;;;;;6219127;28;20447;-77
2022/03/29 00:32:11;;;;;;;10.75;7.10;;;;;;;;;;6216672;28;20129;-78
2022/03/29 00:35:14;;;;;;;13.43;7.32;;;;;;;;;;6218378;28;20046;-80
2022/03/29 00:38:18;;;;;;;11.40;6.80;;;;;;;;;;6222662;28;20042;-78
2022/03/29 00:41:22;;;;;;;14.88;7.03;;;;;;;;;;6228236;28;20443;-80
2022/03/29 00:44:29;;;;;;;13.05;7.43;;;;;;;;;;6228094;28;20053;-81
2022/03/29 00:47:32;;;;;;;11.25;6.60;;;;;;;;;;6232476;28;20045;-80
2022/03/29 00:50:36;;;;;;;13.40;7.35;;;;;;;;;;6230675;28;20503;-80
2022/03/29 00:53:39;;;;;;;10.63;6.28;;;;;;;;;;6231408;28;20041;-79
2022/03/29 00:56:42;;;;;;;14.15;6.50;;;;;;;;;;6228607;28;20049;-79
2022/03/29 00:59:47;;;;;;;9.85;6.68;;;;;;;;;;6228529;28;20057;-79
2022/03/29 01:02:50;;;;;;;16.30;7.63;;;;;;;;;;6226750;28;20042;-81
2022/03/29 01:05:53;;;;;;;10.27;6.38;;;;;;;;;;6237018;28;20045;-80
2022/03/29 01:08:56;;;;;;;12.85;6.93;;;;;;;;;;6240476;28;20042;-81
2022/03/29 01:11:59;;;;;;;12.70;7.00;;;;;;;;;;6242247;28;20041;-81
2022/03/29 01:15:05;;;;;;;10.95;7.18;;;;;;;;;;6241539;28;20049;-80
2022/03/29 01:18:09;;;;;;;10.90;6.90;;;;;;;;;;6225095;28;20044;-79
2022/03/29 01:21:13;;;;;;;11.10;6.72;;;;;;;;;;6242730;28;20049;-80
2022/03/29 01:24:17;;;;;;;11.93;7.20;;;;;;;;;;6241414;28;20052;-79
2022/03/29 01:27:21;;;;;;;19.00;7.22;;;;;;;;;;6242521;28;20041;-80
2022/03/29 01:30:24;;;;;;;21.00;7.63;;;;;;;;;;6243846;28;20472;-79
2022/03/29 01:33:28;;;;;;;12.02;7.00;;;;;;;;;;6245832;28;20052;-78
2022/03/29 01:36:31;;;;;;;11.55;6.65;;;;;;;;;;6246056;28;20056;-79
2022/03/29 01:39:36;;;;;;;14.35;6.72;;;;;;;;;;6247639;28;20046;-79
2022/03/29 01:42:39;;;;;;;11.30;6.80;;;;;;;;;;6247438;28;20477;-80
2022/03/29 01:45:42;;;;;;;12.73;6.60;;;;;;;;;;6246026;28;20053;-77
2022/03/29 01:48:45;;;;;;;12.13;6.40;;;;;;;;;;6246812;28;20440;-77
2022/03/29 01:51:48;;;;;;;12.45;6.72;;;;;;;;;;6235649;28;20052;-79
2022/03/29 01:54:53;;;;;;;12.45;7.13;;;;;;;;;;6204407;28;20432;-77
2022/03/29 01:57:56;;;;;;;15.13;6.78;;;;;;;;;;6221752;28;20049;-76
2022/03/29 02:00:59;;;;;;;12.82;6.65;;;;;;;;;;6205018;28;20468;-77
2022/03/29 02:04:02;;;;;;;17.40;7.05;;;;;;;;;;6204638;28;20054;-77
2022/03/29 02:07:06;;;;;;;17.35;7.22;;;;;;;;;;6220839;28;20046;-79
2022/03/29 02:10:10;;;;;;;23.58;6.90;;;;;;;;;;6220704;28;20619;-79
2022/03/29 02:13:16;;;;;;;13.38;7.65;;;;;;;;;;6222151;28;20104;-77
2022/03/29 02:16:19;;;;;;;14.05;7.22;;;;;;;;;;6221056;28;20164;-79
2022/03/29 02:19:22;;;;;;;17.95;8.38;;;;;;;;;;6221137;28;20519;-76
2022/03/29 02:22:27;;;;;;;17.92;9.85;;;;;;;;;;6220776;28;20137;-75
2022/03/29 02:25:32;;;;;;;17.60;10.43;;;;;;;;;;6221645;28;20041;-77
2022/03/29 02:28:35;;;;;;;21.30;12.30;;;;;;;;;;6220182;28;20404;-75
2022/03/29 02:31:38;;;;;;;24.27;11.65;;;;;;;;;;6221926;28;20088;-77
2022/03/29 02:34:41;;;;;;;20.63;11.70;;;;;;;;;;6221686;28;20092;-78
2022/03/29 02:37:44;;;;;;;19.90;12.23;;;;;;;;;;6219090;28;20049;-81
2022/03/29 02:40:48;;;;;;;28.23;11.27;;;;;;;;;;6219990;28;20132;-81
2022/03/29 02:43:52;;;;;;;22.15;11.30;;;;;;;;;;6219168;28;20058;-81
2022/03/29 02:46:56;;;;;;;28.27;11.52;;;;;;;;;;6220849;28;20038;-81
2022/03/29 02:49:59;;;;;;;19.00;10.37;;;;;;;;;;6220468;28;20046;-83
2022/03/29 02:53:04;;;;;;;18.73;11.10;;;;;;;;;;6223042;28;20293;-83
2022/03/29 02:56:08;;;;;;;20.90;10.03;;;;;;;;;;6224517;28;20274;-82
2022/03/29 02:59:11;;;;;;;20.80;10.30;;;;;;;;;;6221069;28;20400;-84
2022/03/29 03:02:18;;;;;;;18.02;9.55;;;;;;;;;;6220474;28;20046;-80
2022/03/29 03:05:21;;;;;;;28.80;11.32;;;;;;;;;;6221541;28;20501;-81
2022/03/29 03:08:24;;;;;;;15.20;9.48;;;;;;;;;;6218887;28;20046;-81
2022/03/29 03:11:28;;;;;;;22.67;9.77;;;;;;;;;;6201292;28;20493;-81
2022/03/29 03:14:33;;;;;;;20.70;10.20;;;;;;;;;;6221177;28;20045;-80
2022/03/29 03:17:37;;;;;;;21.58;10.77;;;;;;;;;;6221027;28;20052;-82
2022/03/29 03:20:40;;;;;;;19.10;10.73;;;;;;;;;;6219578;28;20451;-82
2022/03/29 03:23:43;;;;;;;20.30;10.63;;;;;;;;;;6220869;28;20061;-82
2022/03/29 03:26:47;;;;;;;22.08;11.32;;;;;;;;;;6220817;28;20042;-83
2022/03/29 03:29:50;;;;;;;20.77;11.75;;;;;;;;;;6219597;28;20119;-82
2022/03/29 03:32:54;;;;;;;27.52;11.55;;;;;;;;;;6218917;28;20045;-83
2022/03/29 03:35:56;;;;;;;23.40;11.32;;;;;;;;;;6221603;28;20153;-82
2022/03/29 03:38:59;;;;;;;19.92;11.10;;;;;;;;;;6220163;28;20054;-82
2022/03/29 03:42:04;;;;;;;22.98;11.15;;;;;;;;;;6217385;28;20053;-83
2022/03/29 03:45:10;;;;;;;25.55;12.70;;;;;;;;;;6219867;28;20049;-82
2022/03/29 03:48:13;;;;;;;25.33;11.68;;;;;;;;;;6221414;28;20076;-86
2022/03/29 03:51:16;;;;;;;23.88;12.23;;;;;;;;;;6236846;28;20034;-86
2022/03/29 03:54:19;;;;;;;20.23;11.15;;;;;;;;;;6236374;28;20042;-86
2022/03/29 03:57:24;;;;;;;22.10;11.07;;;;;;;;;;6220492;28;20065;-87
2022/03/29 04:00:27;;;;;;;22.00;11.45;;;;;;;;;;6218798;28;20104;-82
2022/03/29 04:03:30;;;;;;;19.45;10.85;;;;;;;;;;6219026;28;20054;-80
2022/03/29 04:06:36;;;;;;;18.55;10.90;;;;;;;;;;6218365;28;20057;-75
2022/03/29 04:09:39;;;;;;;19.20;11.05;;;;;;;;;;6219627;28;20358;-76
2022/03/29 04:12:43;;;;;;;19.83;11.27;;;;;;;;;;6218063;28;20052;-78
2022/03/29 04:15:47;;;;;;;27.45;10.95;;;;;;;;;;6219229;28;20053;-80
2022/03/29 04:18:49;;;;;;;26.40;11.07;;;;;;;;;;6219621;28;20042;-80
2022/03/29 04:21:52;;;;;;;37.70;10.80;;;;;;;;;;6218626;28;20050;-79
2022/03/29 04:24:55;;;;;;;24.98;11.00;;;;;;;;;;6218744;28;20141;-81
2022/03/29 04:28:00;;;;;;;36.03;11.65;;;;;;;;;;6218008;28;20045;-79
2022/03/29 04:31:03;;;;;;;25.42;10.32;;;;;;;;;;6218615;28;20058;-77
2022/03/29 04:34:08;;;;;;;18.63;9.38;;;;;;;;;;6217797;28;20050;-78
2022/03/29 04:37:13;;;;;;;20.65;9.98;;;;;;;;;;6219651;28;20050;-78
2022/03/29 04:40:16;;;;;;;23.02;9.45;;;;;;;;;;6219342;28;20058;-79
2022/03/29 04:43:20;;;;;;;23.55;9.30;;;;;;;;;;6215778;28;20401;-76
2022/03/29 04:46:23;;;;;;;24.30;10.23;;;;;;;;;;6218257;28;20074;-80
2022/03/29 04:49:27;;;;;;;21.75;9.68;;;;;;;;;;6218714;28;20488;-80
2022/03/29 04:52:30;;;;;;;24.88;9.68;;;;;;;;;;6216660;28;20045;-80
2022/03/29 04:55:33;;;;;;;22.58;10.02;;;;;;;;;;6218023;28;20042;-78
2022/03/29 04:58:37;;;;;;;20.98;9.15;;;;;;;;;;6217112;28;20053;-80
2022/03/29 05:01:40;;;;;;;22.70;9.93;;;;;;;;;;6218189;28;20045;-77
2022/03/29 05:04:44;;;;;;;21.52;9.25;;;;;;;;;;6216080;28;20054;-78
2022/03/29 05:07:47;;;;;;;17.02;9.13;;;;;;;;;;6216672;28;20360;-78
2022/03/29 05:10:50;;;;;;;20.90;9.40;;;;;;;;;;6216405;28;20045;-77
2022/03/29 05:13:54;;;;;;;18.08;9.13;;;;;;;;;;6198991;28;20054;-77
2022/03/29 05:16:57;;;;;;;19.05;8.98;;;;;;;;;;6216893;28;20038;-77
2022/03/29 05:20:00;;;;;;;20.00;10.55;;;;;;;;;;6217814;28;20034;-76
2022/03/29 05:23:06;;;;;;;18.55;9.18;;;;;;;;;;6217571;28;20060;-77
2022/03/29 05:26:09;;;;;;;20.80;9.45;;;;;;;;;;6217084;28;20046;-80
2022/03/29 05:29:13;;;;;;;23.70;9.18;;;;;;;;;;6200278;28;20050;-77
2022/03/29 05:32:18;;;;;;;18.75;9.02;;;;;;;;;;6217496;28;20064;-77
2022/03/29 05:35:21;;;;;;;16.35;9.07;;;;;;;;;;6215575;28;20050;-76
2022/03/29 05:38:24;;;;;;;19.33;10.23;;;;;;;;;;6217300;28;20042;-80
2022/03/29 05:41:27;;;;;;;20.85;9.60;;;;;;;;;;6217087;28;20401;-78
2022/03/29 05:44:32;;;;;;;19.40;10.05;;;;;;;;;;6214831;28;20060;-77
2022/03/29 05:51:00;;;;;;;26.88;11.27;;;;;;;;;;6179108;28;20181;-77
2022/03/29 05:54:06;;;;;;;23.35;11.45;;;;;;;;;;6217664;28;20441;-75
2022/03/29 05:57:09;;;;;;;27.73;12.40;;;;;;;;;;6216223;28;20050;-77
2022/03/29 06:00:14;;;;;;;18.77;11.70;;;;;;;;;;6217006;28;20050;-81
2022/03/29 06:03:20;;;;;;;20.88;11.50;;;;;;;;;;6217833;28;20050;-81
2022/03/29 06:06:23;;;;;;;24.60;13.05;;;;;;;;;;6216901;28;20535;-78
2022/03/29 06:09:26;;;;;;;26.75;13.30;;;;;;;;;;6216063;28;20049;-88
2022/03/29 06:12:30;;;;;;;27.92;13.55;;;;;;;;;;6218907;28;20448;-85
2022/03/29 06:15:34;;;;;;;22.10;13.35;;;;;;;;;;6222926;28;20060;-85
2022/03/29 06:18:37;;;;;;;48.90;29.55;;;;;;;;;;6203092;28;20049;-85
2022/03/29 06:21:40;;;;;;;24.23;15.82;;;;;;;;;;6220536;28;20551;-84
2022/03/29 06:24:43;;;;;;;33.97;17.77;;;;;;;;;;6220456;28;20045;-83
2022/03/29 06:27:46;;;;;;;24.90;14.02;;;;;;;;;;6218524;28;20072;-81
2022/03/29 06:30:51;;;;;;;29.83;15.07;;;;;;;;;;6220905;28;20092;-83
2022/03/29 06:33:54;;;;;;;30.48;15.00;;;;;;;;;;6220723;28;20136;-84
2022/03/29 06:36:57;;;;;;;30.75;16.33;;;;;;;;;;6221110;28;20049;-84
2022/03/29 06:40:00;;;;;;;31.83;15.30;;;;;;;;;;6218911;28;20068;-85
2022/03/29 06:43:04;;;;;;;29.35;16.27;;;;;;;;;;6221607;28;20065;-84
2022/03/29 06:46:09;;;;;;;36.35;16.92;;;;;;;;;;6221860;28;20471;-86
2022/03/29 06:49:12;;;;;;;34.53;16.33;;;;;;;;;;6221326;28;20056;-86
2022/03/29 06:52:15;;;;;;;26.45;16.27;;;;;;;;;;6219951;28;20151;-84
2022/03/29 06:55:18;;;;;;;34.13;16.65;;;;;;;;;;6219152;28;20042;-83
2022/03/29 06:58:21;;;;;;;34.63;17.10;;;;;;;;;;6218851;28;20123;-83
2022/03/29 07:01:26;;;;;;;30.98;18.20;;;;;;;;;;6217185;28;20052;-81
2022/03/29 07:04:29;;;;;;;30.58;17.27;;;;;;;;;;6218734;28;20171;-81
2022/03/29 07:07:35;;;;;;;36.40;18.20;;;;;;;;;;6219863;28;20050;-80
2022/03/29 07:13:58;;;;;;;34.45;17.02;;;;;;;;;;6220072;28;20500;-81
2022/03/29 07:17:05;;;;;;;34.95;17.58;;;;;;;;;;6220843;28;20042;-83
2022/03/29 07:20:09;;;;;;;26.05;15.70;;;;;;;;;;6219936;28;20046;-85
2022/03/29 07:23:12;;;;;;;33.38;16.17;;;;;;;;;;6217916;28;20157;-85
2022/03/29 07:26:16;;;;;;;29.08;16.45;;;;;;;;;;6220562;28;20260;-81
2022/03/29 07:29:19;;;;;;;34.65;17.33;;;;;;;;;;6219599;28;20420;-80
2022/03/29 07:32:23;;;;;;;31.63;15.48;;;;;;;;;;6218642;28;20049;-82
2022/03/29 07:35:28;;;;;;;32.40;15.93;;;;;;;;;;6217539;28;20046;-82
2022/03/29 07:38:31;;;;;;;28.38;15.88;;;;;;;;;;6219695;28;20403;-82
2022/03/29 07:41:34;;;;;;;32.60;15.43;;;;;;;;;;6221377;28;20065;-83
2022/03/29 07:44:37;;;;;;;31.40;16.48;;;;;;;;;;6218343;28;20050;-83
2022/03/29 07:47:41;;;;;;;33.45;16.88;;;;;;;;;;6220478;28;20052;-82
2022/03/29 07:51:05;;;;;;;28.80;15.20;;;;;;;;;;6202801;28;20049;-81
2022/03/29 07:54:11;;;;;;;29.95;16.15;;;;;;;;;;6218889;28;20153;-82
2022/03/29 07:57:14;;;;;;;27.77;14.73;;;;;;;;;;6219367;28;20092;-80
2022/03/29 08:00:37;;;;;;;28.63;14.98;;;;;;;;;;6220206;28;20053;-82
2022/03/29 08:03:42;;;;;;;35.25;15.25;;;;;;;;;;6219667;28;20050;-81
2022/03/29 08:06:45;;;;;;;37.23;16.37;;;;;;;;;;6201022;28;20058;-82
2022/03/29 08:09:48;;;;;;;27.13;13.27;;;;;;;;;;6218668;28;20046;-82
2022/03/29 08:12:51;;;;;;;24.83;13.50;;;;;;;;;;6220671;28;20188;-84
2022/03/29 08:15:58;;;;;;;;;;;;;;;;;;6220126;28;20506;-83
2022/03/29 08:19:04;;;;;;;22.95;12.98;;;;;;;;;;6201848;28;20249;-84
2022/03/29 08:22:07;;;;;;;24.87;13.27;;;;;;;;;;6220035;28;20111;-78
2022/03/29 08:25:10;;;;;;;22.80;11.48;;;;;;;;;;6218838;28;20405;-79
2022/03/29 08:28:14;;;;;;;25.15;12.18;;;;;;;;;;6217935;28;20096;-80
2022/03/29 08:31:20;;;;;;;21.52;12.13;;;;;;;;;;6219092;28;20057;-80
2022/03/29 08:34:25;;;;;;;21.67;10.68;;;;;;;;;;6219378;28;20050;-81
2022/03/29 08:37:28;;;;;;;22.30;11.65;;;;;;;;;;6217775;28;20137;-80
2022/03/29 08:40:34;;;;;;;24.95;12.00;;;;;;;;;;6216670;28;20058;-80
2022/03/29 08:43:37;;;;;;;21.42;11.10;;;;;;;;;;6218927;28;20204;-82
2022/03/29 08:46:42;;;;;;;24.67;11.60;;;;;;;;;;6218656;28;20042;-84
2022/03/29 08:49:49;;;;;;;23.73;10.98;;;;;;;;;;6217669;28;20073;-83
2022/03/29 08:52:55;;;;;;;20.35;11.60;;;;;;;;;;6219048;28;20054;-82
2022/03/29 08:55:58;;;;;;;21.88;11.73;;;;;;;;;;6218762;28;20381;-81
2022/03/29 08:59:02;;;;;;;21.40;11.77;;;;;;;;;;6217027;28;20380;-81
2022/03/29 09:02:11;;;;;;;19.58;11.25;;;;;;;;;;6218178;28;20072;-81
2022/03/29 09:05:26;;;;;;;21.35;10.85;;;;;;;;;;6217434;28;20059;-83
2022/03/29 09:08:41;;;;;;;25.27;11.00;;;;;;;;;;6216721;28;20096;-83
2022/03/29 09:11:47;;;;;;;23.08;11.43;;;;;;;;;;6215593;28;20058;-83
2022/03/29 09:14:51;;;;;;;21.88;11.50;;;;;;;;;;6216866;28;20050;-81
2022/03/29 09:17:54;;;;;;;18.88;10.38;;;;;;;;;;6217954;28;20049;-85
2022/03/29 09:21:12;;;;;;;17.35;10.02;;;;;;;;;;6217276;28;20046;-78
2022/03/29 09:24:17;;;;;;;17.67;9.20;;;;;;;;;;6216389;28;20100;-78
2022/03/29 09:27:20;;;;;;;22.50;9.90;;;;;;;;;;6217605;28;20046;-76
2022/03/29 09:30:43;;;;;;;19.58;9.45;;;;;;;;;;6216457;28;20053;-76
2022/03/29 09:33:46;;;;;;;26.88;9.60;;;;;;;;;;6215848;28;20081;-74
2022/03/29 09:36:52;;;;;;;24.58;13.75;;;;;;;;;;6214938;28;20451;-79
2022/03/29 09:39:54;;;;;;;21.52;11.85;;;;;;;;;;6199600;28;20045;-76
2022/03/29 09:43:15;;;;;;;19.80;10.27;;;;;;;;;;6215626;28;20499;-78
2022/03/29 09:46:18;;;;;;;21.40;9.50;;;;;;;;;;6215466;28;20052;-77
2022/03/29 09:49:22;;;;;;;22.40;10.48;;;;;;;;;;6215898;28;20132;-78
2022/03/29 09:52:27;;;;;;;16.63;9.80;;;;;;;;;;6218807;28;20061;-77
2022/03/29 09:55:30;;;;;;;26.33;13.82;;;;;;;;;;6221418;28;20499;-76
2022/03/29 09:58:33;;;;;;;20.38;13.07;;;;;;;;;;6222050;28;20054;-78
2022/03/29 10:01:46;;;;;;;21.27;11.10;;;;;;;;;;6222992;28;20042;-83
2022/03/29 10:04:49;;;;;;;21.08;10.00;;;;;;;;;;6222185;28;20050;-81
2022/03/29 10:09:25;;;;;;;22.23;10.43;;;;;;;;;;6219874;28;20042;-81
2022/03/29 10:11:22;;;;;;;28.30;10.80;;;;;;;;;;6222328;28;20506;-78
2022/03/29 10:14:29;;;;;;;22.60;11.75;;;;;;;;;;6222905;28;20058;-80
2022/03/29 10:17:32;;;;;;;24.08;11.70;;;;;;;;;;6220128;28;20052;-77
2022/03/29 10:20:35;;;;;;;25.73;12.07;;;;;;;;;;6221005;28;20046;-77
2022/03/29 10:23:40;;;;;;;22.95;12.73;;;;;;;;;;6221896;28;20042;-76
2022/03/29 10:26:44;;;;;;;24.58;12.93;;;;;;;;;;6220100;28;20050;-80
2022/03/29 10:29:47;;;;;;;24.50;13.32;;;;;;;;;;6218577;28;20060;-82
2022/03/29 10:32:50;;;;;;;23.48;11.77;;;;;;;;;;6220094;28;20463;-80
2022/03/29 10:36:06;;;;;;;25.10;12.95;;;;;;;;;;6220301;28;20042;-78
2022/03/29 10:39:11;;;;;;;24.85;12.80;;;;;;;;;;6221243;28;20488;-80
2022/03/29 10:42:36;;;;;;;20.33;11.77;;;;;;;;;;6220274;28;20156;-79
2022/03/29 10:45:39;;;;;;;24.27;13.82;;;;;;;;;;6220801;28;20053;-77
2022/03/29 10:49:02;;;;;;;25.90;13.65;;;;;;;;;;6221341;28;20053;-77
2022/03/29 10:52:25;;;;;;;28.45;14.32;;;;;;;;;;6219290;28;20451;-77
2022/03/29 10:55:31;;;;;;;23.23;13.07;;;;;;;;;;6219358;28;20042;-77
2022/03/29 10:58:57;;;;;;;23.85;13.68;;;;;;;;;;6219210;28;20108;-79
2022/03/29 11:02:11;;;;;;;25.05;13.98;;;;;;;;;;6220705;28;20064;-79
2022/03/29 11:05:14;;;;;;;22.65;14.45;;;;;;;;;;6218510;28;20401;-77
2022/03/29 11:08:19;;;;;;;23.52;14.70;;;;;;;;;;6219703;28;20469;-77
2022/03/29 11:11:39;;;;;;;25.17;14.25;;;;;;;;;;6218981;28;20057;-76
2022/03/29 11:14:43;;;;;;;23.92;14.43;;;;;;;;;;6217165;28;20111;-76
2022/03/29 11:17:48;;;;;;;24.48;14.15;;;;;;;;;;6219330;28;20054;-76
2022/03/29 11:20:53;;;;;;;26.35;15.20;;;;;;;;;;6218379;28;20046;-77
2022/03/29 11:23:59;;;;;;;29.35;14.98;;;;;;;;;;6220507;28;20480;-76
2022/03/29 11:27:04;;;;;;;26.60;14.00;;;;;;;;;;6218921;28;20184;-76
2022/03/29 11:30:07;;;;;;;;;;;;;;;;;;6217710;28;20045;-76
2022/03/29 11:33:10;;;;;;;28.65;16.15;;;;;;;;;;6218804;28;19921;-78
2022/03/29 11:36:13;;;;;;;29.60;19.48;;;;;;;;;;6218916;28;20233;-78
2022/03/29 11:39:23;;;;;;;26.35;16.15;;;;;;;;;;6216188;28;20487;-78
2022/03/29 11:45:59;;;;;;;24.38;15.00;;;;;;;;;;6366296;27;20482;-77
2022/03/29 11:49:03;;;;;;;24.90;15.02;;;;;;;;;;6323085;28;20121;-77
2022/03/29 11:52:11;;;;;;;32.70;16.33;;;;;;;;;;6341256;28;20127;-77
2022/03/29 11:55:15;;;;;;;25.63;14.85;;;;;;;;;;6339050;28;20110;-78
2022/03/29 11:58:21;;;;;;;42.53;16.30;;;;;;;;;;6340472;28;20886;-78
2022/03/29 12:01:28;;;;;;;23.25;13.65;;;;;;;;;;6341568;28;20056;-77
2022/03/29 12:04:33;;;;;;;28.90;15.70;;;;;;;;;;6340199;28;20055;-77
2022/03/29 12:07:42;;;;;;;22.55;13.57;;;;;;;;;;6341260;28;20039;-76
2022/03/29 12:10:45;;;;;;;26.92;14.43;;;;;;;;;;6340424;28;20055;-77
2022/03/29 12:13:49;;;;;;;92.07;63.75;;;;;;;;;;6341355;28;20044;-77
2022/03/29 12:16:54;;;;;;;29.10;17.17;;;;;;;;;;6338768;28;20392;-78
2022/03/29 12:19:58;;;;;;;24.48;14.55;;;;;;;;;;6339929;28;20035;-77
2022/03/29 12:23:01;;;;;;;28.55;15.35;;;;;;;;;;6341234;28;20050;-76
2022/03/29 12:26:04;;;;;;;28.33;15.25;;;;;;;;;;6338504;28;20089;-77
2022/03/29 12:29:10;;;;;;;24.13;14.40;;;;;;;;;;6341183;28;20039;-78
2022/03/29 12:32:16;;;;;;;24.63;14.18;;;;;;;;;;6339853;28;20118;-78
2022/03/29 12:35:21;;;;;;;26.08;14.90;;;;;;;;;;6340324;28;20048;-78
2022/03/29 12:38:24;;;;;;;25.00;14.98;;;;;;;;;;6338823;28;20048;-77
2022/03/29 12:41:35;;;;;;;33.78;15.88;;;;;;;;;;6340642;28;20480;-78
2022/03/29 12:44:46;;;;;;;23.52;14.25;;;;;;;;;;6337913;28;20059;-77
2022/03/29 12:47:50;;;;;;;24.70;14.50;;;;;;;;;;6334633;28;20055;-77
2022/03/29 12:50:54;;;;;;;23.63;13.45;;;;;;;;;;6336879;28;20451;-76
2022/03/29 12:53:58;;;;;;;23.55;13.05;;;;;;;;;;6336089;28;20067;-77
2022/03/29 12:57:03;;;;;;;20.13;13.02;;;;;;;;;;6320406;28;20040;-77
2022/03/29 13:00:09;;;;;;;22.37;13.77;;;;;;;;;;6318873;28;20052;-78
2022/03/29 13:03:19;;;;;;;21.77;13.43;;;;;;;;;;6319244;28;20051;-79
2022/03/29 13:06:40;;;;;;;22.35;13.68;;;;;;;;;;6320502;28;20047;-78
2022/03/29 13:09:57;;;;;;;20.98;13.68;;;;;;;;;;6319285;28;20159;-78
2022/03/29 13:13:18;;;;;;;22.70;13.50;;;;;;;;;;6316624;28;20048;-77
2022/03/29 13:16:22;;;;;;;19.17;12.45;;;;;;;;;;6317438;28;20040;-77
2022/03/29 13:19:29;;;;;;;23.08;12.02;;;;;;;;;;6320473;28;20052;-77
2022/03/29 13:22:32;;;;;;;22.65;13.18;;;;;;;;;;6318651;28;20394;-78
2022/03/29 13:25:35;;;;;;;18.35;12.32;;;;;;;;;;6318424;28;20047;-76
2022/03/29 13:28:39;;;;;;;19.37;12.03;;;;;;;;;;6319258;28;20421;-76
2022/03/29 13:31:44;;;;;;;20.88;12.05;;;;;;;;;;6318767;28;20403;-77
2022/03/29 13:34:50;;;;;;;21.65;11.98;;;;;;;;;;6317911;28;20871;-77
2022/03/29 13:37:55;;;;;;;27.00;12.10;;;;;;;;;;6317119;28;20130;-76
2022/03/29 13:40:58;;;;;;;19.27;11.35;;;;;;;;;;6317871;28;20048;-78
2022/03/29 13:44:01;;;;;;;18.38;11.35;;;;;;;;;;6316994;28;20044;-78
2022/03/29 13:47:04;;;;;;;20.67;11.13;;;;;;;;;;6318560;28;20059;-79
2022/03/29 13:50:10;;;;;;;21.33;12.20;;;;;;;;;;6318505;28;20058;-77
2022/03/29 13:53:15;;;;;;;19.88;13.23;;;;;;;;;;6317385;28;20040;-81
2022/03/29 13:56:19;;;;;;;20.63;12.00;;;;;;;;;;6317486;28;20040;-80
2022/03/29 13:59:25;;;;;;;17.83;11.70;;;;;;;;;;6318905;28;20047;-79
2022/03/29 14:02:29;;;;;;;24.90;12.40;;;;;;;;;;6317952;28;20430;-79
2022/03/29 14:05:38;;;;;;;19.33;12.27;;;;;;;;;;6315182;28;20040;-78
2022/03/29 14:08:43;;;;;;;20.27;11.55;;;;;;;;;;6317424;28;20054;-77
2022/03/29 14:11:49;;;;;;;18.98;11.23;;;;;;;;;;6318838;28;20455;-76
2022/03/29 14:14:52;;;;;;;21.48;11.68;;;;;;;;;;6316851;28;20123;-78
2022/03/29 14:17:55;;;;;;;28.02;17.52;;;;;;;;;;6316863;28;20481;-78
2022/03/29 14:21:00;;;;;;;18.70;10.65;;;;;;;;;;6318390;28;20101;-77
2022/03/29 14:24:03;;;;;;;18.70;11.13;;;;;;;;;;6317612;28;20044;-78
2022/03/29 14:27:06;;;;;;;28.58;11.73;;;;;;;;;;6316446;28;20061;-79
2022/03/29 14:30:13;;;;;;;17.77;11.00;;;;;;;;;;6316621;28;20043;-78
2022/03/29 14:33:16;;;;;;;18.77;11.15;;;;;;;;;;6299871;28;20512;-77
2022/03/29 14:36:21;;;;;;;23.52;11.63;;;;;;;;;;6317386;28;20397;-79
2022/03/29 14:39:24;;;;;;;23.08;11.18;;;;;;;;;;6314964;28;20127;-76
2022/03/29 14:42:27;;;;;;;22.27;12.03;;;;;;;;;;6316745;28;20051;-77
2022/03/29 14:45:31;;;;;;;17.40;10.93;;;;;;;;;;6316076;28;20069;-78
2022/03/29 14:48:34;;;;;;;19.75;11.35;;;;;;;;;;6314502;28;20052;-78
2022/03/29 14:51:42;;;;;;;17.52;10.63;;;;;;;;;;6317987;28;20051;-77
2022/03/29 14:54:45;;;;;;;22.00;11.18;;;;;;;;;;6317813;28;20156;-79
2022/03/29 14:57:50;;;;;;;18.63;10.82;;;;;;;;;;6315676;28;20504;-79
2022/03/29 15:00:53;;;;;;;19.25;10.68;;;;;;;;;;6316366;28;20044;-77
2022/03/29 15:03:56;;;;;;;18.40;10.88;;;;;;;;;;6316100;28;20121;-78
2022/03/29 15:07:01;;;;;;;18.63;11.75;;;;;;;;;;6316999;28;20044;-77
2022/03/29 15:10:05;;;;;;;18.92;10.88;;;;;;;;;;6315339;28;20044;-76
2022/03/29 15:13:09;;;;;;;17.92;10.50;;;;;;;;;;6315641;28;20101;-78
2022/03/29 15:16:12;;;;;;;26.30;11.02;;;;;;;;;;6314333;28;20139;-83
2022/03/29 15:19:15;;;;;;;78.57;15.32;;;;;;;;;;6313425;28;20058;-77
2022/03/29 15:22:20;;;;;;;20.55;10.70;;;;;;;;;;6315127;28;20100;-78
2022/03/29 15:25:25;;;;;;;20.15;9.60;;;;;;;;;;6314333;28;20040;-78
2022/03/29 15:28:28;;;;;;;18.42;11.27;;;;;;;;;;6313420;28;20508;-79
2022/03/29 15:31:31;;;;;;;20.73;10.88;;;;;;;;;;6311903;28;20093;-77
2022/03/29 15:34:38;;;;;;;23.17;11.13;;;;;;;;;;6315662;28;20040;-76
2022/03/29 15:37:44;;;;;;;17.58;10.00;;;;;;;;;;6314568;28;20035;-77
2022/03/29 15:40:47;;;;;;;16.15;10.27;;;;;;;;;;6315202;28;20055;-78
2022/03/29 15:43:51;;;;;;;18.85;11.10;;;;;;;;;;6314868;28;20044;-79
2022/03/29 15:46:57;;;;;;;16.75;9.85;;;;;;;;;;6315643;28;20051;-77
2022/03/29 15:50:01;;;;;;;20.17;10.33;;;;;;;;;;6315611;28;20105;-77
2022/03/29 15:53:09;;;;;;;18.55;10.57;;;;;;;;;;6313635;28;20406;-79
2022/03/29 15:56:12;;;;;;;19.77;10.75;;;;;;;;;;6314817;28;20036;-79
2022/03/29 15:59:15;;;;;;;19.70;10.60;;;;;;;;;;6316449;28;20089;-80
2022/03/29 16:02:21;;;;;;;19.33;10.30;;;;;;;;;;6313506;28;20422;-80
2022/03/29 16:05:24;;;;;;;19.45;10.18;;;;;;;;;;6314705;28;20048;-80
2022/03/29 16:08:34;;;;;;;17.98;10.35;;;;;;;;;;6315482;28;20044;-78
2022/03/29 16:11:37;;;;;;;33.38;9.98;;;;;;;;;;6314549;28;20129;-81
2022/03/29 16:14:40;;;;;;;21.88;10.55;;;;;;;;;;6313121;28;20052;-80
2022/03/29 16:17:46;;;;;;;17.23;9.90;;;;;;;;;;6315078;28;20098;-85
2022/03/29 16:20:50;;;;;;;19.45;10.30;;;;;;;;;;6315059;28;20117;-81
2022/03/29 16:23:54;;;;;;;15.75;10.27;;;;;;;;;;6313926;28;20388;-83
2022/03/29 16:26:58;;;;;;;20.88;11.07;;;;;;;;;;6317224;28;20037;-83
2022/03/29 16:30:03;;;;;;;31.35;11.95;;;;;;;;;;6317144;28;20126;-82
2022/03/29 16:33:07;;;;;;;30.05;12.45;;;;;;;;;;6318940;28;20044;-85
2022/03/29 16:36:10;;;;;;;21.63;11.48;;;;;;;;;;6302749;28;20040;-84
2022/03/29 16:39:15;;;;;;;32.42;11.20;;;;;;;;;;6320038;28;20039;-84
2022/03/29 16:42:19;;;;;;;19.33;11.30;;;;;;;;;;6319866;28;20044;-84
2022/03/29 16:45:23;;;;;;;33.90;12.47;;;;;;;;;;6319045;28;20067;-81
2022/03/29 16:48:26;;;;;;;20.02;10.30;;;;;;;;;;6319742;28;20044;-80
2022/03/29 16:51:29;;;;;;;21.30;10.60;;;;;;;;;;6303035;28;20378;-82
2022/03/29 16:54:34;;;;;;;22.98;11.13;;;;;;;;;;6318149;28;20131;-81
2022/03/29 16:57:37;;;;;;;;;;;;;;;;;;6319622;28;20081;-83
2022/03/29 17:00:41;;;;;;;22.08;10.40;;;;;;;;;;6321445;28;19920;-83
2022/03/29 17:03:44;;;;;;;24.02;11.13;;;;;;;;;;6319219;28;20481;-83
2022/03/29 17:06:48;;;;;;;21.65;10.23;;;;;;;;;;6317538;28;20044;-82
2022/03/29 17:09:53;;;;;;;21.38;10.23;;;;;;;;;;6320717;28;20097;-82
2022/03/29 17:12:59;;;;;;;18.15;10.75;;;;;;;;;;6317622;28;20559;-81
2022/03/29 17:16:02;;;;;;;19.48;11.13;;;;;;;;;;6315722;28;20097;-82
2022/03/29 17:19:06;;;;;;;22.30;10.00;;;;;;;;;;6300877;28;20134;-81
2022/03/29 17:22:10;;;;;;;28.05;10.50;;;;;;;;;;6319338;28;20036;-81
2022/03/29 17:25:15;;;;;;;26.80;10.55;;;;;;;;;;6316656;28;20048;-85
2022/03/29 17:28:19;;;;;;;28.33;10.73;;;;;;;;;;6300974;28;20040;-89
2022/03/29 17:31:22;;;;;;;28.88;9.93;;;;;;;;;;6322757;28;20051;-88
2022/03/29 17:34:30;;;;;;;139.05;15.98;;;;;;;;;;6320898;28;20055;-85
2022/03/29 17:37:33;;;;;;;81.93;13.43;;;;;;;;;;6315647;28;20059;-82
2022/03/29 17:40:38;;;;;;;19.20;9.52;;;;;;;;;;6319434;28;20047;-73
2022/03/29 17:43:41;;;;;;;17.75;9.30;;;;;;;;;;6318535;28;20458;-83
2022/03/29 17:46:48;;;;;;;16.52;8.13;;;;;;;;;;6316511;28;20044;-80
2022/03/29 17:49:51;;;;;;;18.40;9.15;;;;;;;;;;6318385;28;20097;-79
2022/03/29 17:52:55;;;;;;;15.73;8.38;;;;;;;;;;6317623;28;20055;-79
2022/03/29 17:56:03;;;;;;;17.67;8.13;;;;;;;;;;6316898;28;20056;-80
2022/03/29 17:59:06;;;;;;;19.08;8.82;;;;;;;;;;6316170;28;20052;-82
2022/03/29 18:02:09;;;;;;;16.42;8.45;;;;;;;;;;6319302;28;20047;-79
2022/03/29 18:05:12;;;;;;;19.98;8.65;;;;;;;;;;6319462;28;20043;-78
2022/03/29 18:08:15;;;;;;;22.83;9.30;;;;;;;;;;6315856;28;20118;-79
2022/03/29 18:11:20;;;;;;;17.77;8.90;;;;;;;;;;6315117;28;20070;-78